Latest Weather Observations for Young

IDN60801

Issued at 3:32 pm EDT Monday 27 March 2017 (issued every 30 minutes, with the page automatically refreshed every 10 minutes)

About weather observations | Map of weather stations | Latest weather observations for NSW | Other Formats
Station Details ID: 073138 Name: YOUNG AIRPORT Lat: -34.25 Lon: 148.25 Height: 379.6 m
Data from the previous 72 hours. | See also: Recent months at Young
Date/Time
EDT
Temp
°C
App
Temp
°C
Dew
Point
°C
Rel
Hum
%
Delta-T
°C
Wind Press
QNH
hPa
Press
MSL
hPa
Rain since
9am
mm
Dir  Spd
km/h
Gust
km/h
Spd
kts
Gust
kts
27/03:30pm 30.3 29.2 17.7 46 8.2 NNW 20 28 11 15 1011.0 1009.7 0.0
27/03:00pm 30.4 29.5 18.2 48 8.0 NNW 20 30 11 16 1011.3 1010.0 0.0
27/02:30pm 29.7 28.1 17.5 48 7.9 NNW 22 32 12 17 1011.8 1010.5 0.0
27/02:00pm 29.8 28.7 18.6 51 7.3 NNW 22 30 12 16 1012.4 1011.1 0.0
27/01:30pm 29.2 27.8 17.1 48 7.7 NNW 20 30 11 16 1012.9 1011.6 0.0
27/01:00pm 29.2 28.1 17.4 49 7.6 NNW 19 28 10 15 1013.4 1012.1 0.0
27/12:30pm 28.7 27.5 17.6 51 7.1 N 20 32 11 17 1013.8 1012.5 0.0
27/12:00pm 28.4 27.2 17.6 52 6.9 NNW 20 28 11 15 1014.1 1012.8 0.0
27/11:30am 27.6 26.2 16.6 51 6.9 N 19 26 10 14 1014.5 1013.3 0.0
27/11:00am 26.3 25.5 16.0 53 6.4 N 15 24 8 13 1014.9 1013.6 0.0
27/10:30am 25.4 24.2 15.1 53 6.3 N 15 20 8 11 1015.3 1014.0 0.0
27/10:00am 24.4 22.9 15.3 57 5.6 N 17 26 9 14 1015.3 1014.0 0.0
27/09:30am 23.5 22.8 15.5 60 4.9 NNE 13 19 7 10 1015.5 1014.2 0.0
27/09:00am 21.6 23.3 16.3 72 3.3 ENE 2 7 1 4 1015.6 1014.3 0.0
27/08:30am 18.8 20.8 16.0 84 1.7 CALM 0 0 0 0 1015.5 1014.2 0.0
27/08:00am 16.5 18.1 14.9 90 0.9 CALM 0 0 0 0 1015.4 1014.1 0.0
27/07:30am 15.3 16.6 14.2 93 0.6 CALM 0 0 0 0 1015.4 1014.1 0.0
27/07:00am 15.4 15.9 14.1 92 0.7 SSW 4 7 2 4 1015.1 1013.8 0.0
27/06:30am 15.7 17.0 14.2 91 0.9 CALM 0 0 0 0 1014.9 1013.6 0.0
27/06:00am 16.2 16.5 14.6 90 0.9 SW 6 7 3 4 1014.7 1013.4 0.0
27/05:30am 15.4 15.6 14.1 92 0.7 SW 6 7 3 4 1014.5 1013.3 0.0
27/05:00am 15.7 15.7 14.2 91 0.9 SW 7 9 4 5 1014.5 1013.3 0.0
27/04:30am 15.9 16.1 14.3 90 0.9 SSW 6 9 3 5 1014.5 1013.3 0.0
27/04:00am 15.8 15.8 14.2 90 0.9 S 7 9 4 5 1014.9 1013.6 0.0
27/03:30am 15.8 17.1 14.2 90 0.9 CALM 0 7 0 4 1014.9 1013.6 0.0
27/03:00am 15.7 15.9 14.1 90 0.9 S 6 7 3 4 1015.2 1013.9 0.0
27/02:30am 15.7 16.0 13.5 87 1.3 WSW 4 7 2 4 1015.4 1014.1 0.0
27/02:00am 16.2 16.3 14.0 87 1.3 SSE 6 7 3 4 1015.5 1014.2 0.0
27/01:30am 16.2 16.2 13.5 84 1.5 SW 6 7 3 4 1015.7 1014.4 0.0
27/01:00am 16.9 17.3 13.6 81 1.9 SW 4 7 2 4 1015.7 1014.4 0.0
27/12:30am 15.9 16.2 13.4 85 1.4 WSW 4 7 2 4 1015.7 1014.4 0.0
27/12:00am 16.3 16.4 13.8 85 1.4 SW 6 7 3 4 1015.7 1014.4 0.0
 
Date/Time
EDT
Temp
°C
App
Temp
°C
Dew
Point
°C
Rel
Hum
%
Delta-T
°C
Wind Press
QNH
hPa
Press
MSL
hPa
Rain since
9am
mm
Dir  Spd
km/h
Gust
km/h
Spd
kts
Gust
kts
26/11:30pm 17.1 16.6 13.8 81 1.9 WSW 9 11 5 6 1015.9 1014.6 0.0
26/11:00pm 17.5 17.5 15.1 86 1.4 S 9 11 5 6 1016.1 1014.8 0.0
26/10:30pm 17.7 17.9 14.6 82 1.8 SW 7 11 4 6 1015.9 1014.6 0.0
26/10:00pm 19.0 19.5 15.1 78 2.3 S 6 7 3 4 1015.7 1014.4 0.0
26/09:30pm 19.3 21.0 15.2 77 2.5 CALM 0 6 0 3 1015.7 1014.4 0.0
26/09:00pm 19.9 20.2 14.9 73 3.0 S 7 9 4 5 1015.4 1014.1 0.0
26/08:30pm 20.1 20.1 14.2 69 3.5 SW 7 9 4 5 1015.0 1013.7 0.0
26/08:00pm 20.9 21.4 14.1 65 4.0 WSW 4 7 2 4 1014.5 1013.3 0.0
26/07:30pm 23.6 24.1 12.9 51 6.3 SW 2 6 1 3 1014.2 1012.9 0.0
26/07:00pm 25.5 24.9 12.4 44 7.7 SE 7 9 4 5 1013.9 1012.6 0.0
26/06:30pm 27.8 26.7 11.8 37 9.4 SSE 9 11 5 6 1014.0 1012.7 0.0
26/06:00pm 29.1 28.6 12.5 36 9.9 SSE 7 9 4 5 1013.7 1012.4 0.0
26/05:30pm 29.8 28.4 10.9 31 11.0 SW 9 11 5 6 1013.7 1012.4 0.0
26/05:00pm 30.5 29.7 11.0 30 11.4 WSW 6 9 3 5 1013.5 1012.2 0.0
26/04:30pm 29.8 28.4 10.9 31 11.0 S 9 13 5 7 1013.4 1012.1 0.0
26/04:00pm 29.9 28.9 12.3 33 10.5 SSE 9 17 5 9 1013.5 1012.2 0.0
26/03:30pm 30.2 28.9 12.6 34 10.5 SE 11 15 6 8 1013.8 1012.5 0.0
26/03:00pm 30.4 30.1 13.2 35 10.4 W 7 13 4 7 1014.0 1012.7 0.0
26/02:30pm 30.1 29.6 13.8 37 9.9 ENE 9 15 5 8 1014.2 1012.9 0.0
26/02:00pm 29.5 29.5 14.1 39 9.4 N 7 13 4 7 1014.5 1013.3 0.0
26/01:30pm 28.8 29.1 15.0 43 8.5 NNE 7 13 4 7 1015.1 1013.8 0.0
26/01:00pm 27.7 27.6 15.0 45 7.8 ESE 9 15 5 8 1015.4 1014.1 0.0
26/12:30pm 27.7 28.6 16.6 50 7.0 ESE 7 13 4 7 1015.9 1014.6 0.0
26/12:00pm 26.6 25.9 14.4 47 7.4 E 11 17 6 9 1016.1 1014.8 0.0
26/11:30am 26.4 25.9 15.8 52 6.6 ENE 13 17 7 9 1016.2 1014.9 0.0
26/11:00am 25.5 26.0 17.4 61 5.1 ESE 11 17 6 9 1016.5 1015.2 0.0
26/10:30am 24.5 24.9 17.2 63 4.6 E 11 15 6 8 1016.4 1015.1 0.0
26/10:00am 22.7 23.3 16.7 69 3.7 SE 9 13 5 7 1016.6 1015.3 0.0
26/09:30am 20.2 21.6 16.4 79 2.3 SSE 4 7 2 4 1016.4 1015.1 0.0
26/09:00am 18.7 19.0 15.9 84 1.7 S 9 11 5 6 1016.5 1015.2 0.0
26/08:30am 17.2 17.8 15.7 91 0.9 SSW 7 9 4 5 1016.2 1014.9 0.0
26/08:00am 15.4 16.6 14.9 97 0.3 S 2 7 1 4 1016.0 1014.7 0.0
26/07:30am 14.1 15.2 13.5 96 0.3 CALM 0 0 0 0 1015.6 1014.3 0.0
26/07:00am 14.7 14.3 14.2 97 0.3 SW 9 11 5 6 1015.5 1014.2 0.0
26/06:30am 14.4 14.5 13.8 96 0.3 SSW 6 7 3 4 1014.9 1013.6 0.0
26/06:00am 14.4 14.3 13.8 96 0.3 SSW 7 9 4 5 1014.4 1013.2 0.0
26/05:30am 14.6 14.8 14.3 98 0.2 SW 6 7 3 4 1014.0 1012.7 0.0
26/05:00am 13.9 13.7 13.1 95 0.4 SSW 6 7 3 4 1014.3 1013.0 0.0
26/04:30am 14.5 15.4 13.9 96 0.3 SW 2 7 1 4 1014.2 1012.9 0.0
26/04:00am 15.0 16.4 14.5 97 0.3 CALM 0 0 0 0 1014.3 1013.0 0.0
26/03:30am 15.0 16.0 14.2 95 0.5 SSE 2 7 1 4 1014.3 1013.0 0.0
26/03:00am 15.4 15.7 14.6 95 0.5 S 6 9 3 5 1014.7 1013.4 0.0
26/02:30am 15.7 16.5 14.9 95 0.5 SW 4 7 2 4 1014.9 1013.6 0.0
26/02:00am 15.8 16.0 14.7 93 0.6 S 7 11 4 6 1014.9 1013.6 0.0
26/01:30am 16.8 16.2 15.7 93 0.7 S 13 15 7 8 1014.9 1013.6 0.0
26/01:00am 16.8 17.0 15.8 94 0.6 S 9 13 5 7 1015.0 1013.7 0.0
26/12:30am 17.2 17.3 15.5 90 1.0 SSW 9 11 5 6 1015.2 1013.9 0.0
26/12:00am 18.2 18.6 16.2 88 1.2 SSW 9 11 5 6 1015.5 1014.2 0.0
 
Date/Time
EDT
Temp
°C
App
Temp
°C
Dew
Point
°C
Rel
Hum
%
Delta-T
°C
Wind Press
QNH
hPa
Press
MSL
hPa
Rain since
9am
mm
Dir  Spd
km/h
Gust
km/h
Spd
kts
Gust
kts
25/11:30pm 18.8 20.6 16.4 86 1.5 SSW 2 6 1 3 1015.4 1014.1 0.0
25/11:00pm 19.3 20.2 16.7 85 1.6 S 7 7 4 4 1015.7 1014.4 0.0
25/10:30pm 19.3 20.3 16.9 86 1.5 S 7 9 4 5 1015.5 1014.2 0.0
25/10:00pm 19.2 19.7 16.6 85 1.6 SSW 9 9 5 5 1015.5 1014.2 0.0
25/09:30pm 19.3 20.2 16.7 85 1.6 S 7 9 4 5 1015.3 1014.0 0.0
25/09:00pm 19.8 20.7 16.6 82 2.0 SSE 7 9 4 5 1015.0 1013.7 0.0
25/08:30pm 20.4 20.9 16.6 79 2.3 S 9 11 5 6 1014.7 1013.4 0.0
25/08:00pm 20.6 21.0 16.4 77 2.6 S 9 13 5 7 1014.2 1012.9 0.0
25/07:30pm 20.7 20.7 16.3 76 2.7 SE 11 17 6 9 1014.1 1012.8 0.0
25/07:00pm 21.6 21.8 16.8 74 3.0 SSE 11 19 6 10 1013.8 1012.5 0.0
25/06:30pm 22.4 22.4 17.1 72 3.3 SSE 13 17 7 9 1013.5 1012.2 0.0
25/06:00pm 23.4 23.1 17.4 69 3.8 SSE 15 20 8 11 1013.2 1011.9 0.0
25/05:30pm 24.8 27.0 18.3 67 4.2 SE 4 9 2 5 1012.9 1011.6 0.0
25/05:00pm 25.1 27.7 17.6 63 4.8 CALM 0 0 0 0 1012.8 1011.5 0.0
25/04:30pm 25.3 26.7 17.7 62 4.8 NW 7 11 4 6 1012.7 1011.4 0.0
25/04:00pm 25.5 26.3 17.2 60 5.2 NNE 9 15 5 8 1012.8 1011.5 0.0
25/03:30pm 25.3 26.6 17.0 60 5.2 N 6 11 3 6 1013.0 1011.7 0.0
25/03:00pm 25.5 27.5 16.9 59 5.4 NW 2 9 1 5 1013.2 1011.9 0.0
25/02:30pm 25.3 26.6 17.5 62 4.9 NNW 7 11 4 6 1013.8 1012.5 0.0
25/02:00pm 24.2 25.7 16.7 63 4.7 NW 4 9 2 5 1014.2 1012.9 0.0
25/01:30pm 23.8 24.8 16.8 65 4.4 NNW 7 11 4 6 1014.5 1013.3 0.0
25/01:00pm 23.7 23.4 16.5 64 4.5 NNW 13 20 7 11 1015.0 1013.7 0.0
25/12:30pm 24.3 24.5 15.8 59 5.2 NNE 9 15 5 8 1015.4 1014.1 0.0
25/12:00pm 23.2 23.8 15.8 63 4.5 NE 7 17 4 9 1015.8 1014.5 0.0
25/11:30am 22.3 21.5 15.2 64 4.3 ENE 13 20 7 11 1015.9 1014.6 0.0
25/11:00am 22.1 20.7 14.5 62 4.5 ENE 15 20 8 11 1016.2 1014.9 0.0
25/10:30am 21.3 20.6 14.2 64 4.2 NE 11 15 6 8 1016.4 1015.1 0.0
25/10:00am 19.7 18.6 14.3 71 3.2 NE 13 19 7 10 1016.5 1015.2 0.0
25/09:30am 18.7 18.8 13.8 73 2.9 E 6 9 3 5 1016.4 1015.1 0.0
25/09:00am 17.4 17.1 13.3 77 2.3 ESE 7 9 4 5 1016.3 1015.0 0.0
25/08:30am 17.2 17.0 13.7 80 2.0 ESE 7 9 4 5 1016.0 1014.7 0.0
25/08:00am 16.7 16.6 13.2 80 2.0 SE 6 7 3 4 1016.1 1014.8 0.0
25/07:30am 16.2 15.9 13.3 83 1.7 SE 7 11 4 6 1015.9 1014.6 0.0
25/07:00am 16.2 15.9 13.3 83 1.7 SSE 7 9 4 5 1015.9 1014.6 0.0
25/06:30am 15.9 15.6 13.4 85 1.4 SSE 7 9 4 5 1015.7 1014.4 0.0
25/06:00am 16.0 15.7 13.3 84 1.5 S 7 9 4 5 1015.7 1014.4 0.0
25/05:30am 15.8 15.1 13.3 85 1.4 S 9 11 5 6 1015.6 1014.3 0.0
25/05:00am 15.9 15.6 13.2 84 1.5 SSE 7 9 4 5 1015.5 1014.2 0.0
25/04:30am 15.6 15.4 13.1 85 1.4 SSE 6 9 3 5 1015.8 1014.5 0.0
25/04:00am 15.3 14.6 13.2 87 1.2 S 9 11 5 6 1015.8 1014.5 0.0
25/03:30am 15.4 15.0 12.9 85 1.4 SSE 7 9 4 5 1015.9 1014.6 0.0
25/03:00am 15.4 15.0 12.9 85 1.4 SSE 7 9 4 5 1016.2 1014.9 0.0
25/02:30am 15.8 15.4 13.1 84 1.5 SSE 7 9 4 5 1016.6 1015.3 0.0
25/02:00am 15.6 15.4 12.9 84 1.5 S 6 7 3 4 1016.8 1015.6 0.0
25/01:30am 16.6 16.4 13.1 80 2.0 SSE 6 9 3 5 1017.1 1015.9 0.0
25/01:00am 17.2 16.5 13.3 78 2.2 ESE 9 11 5 6 1017.1 1015.9 0.0
25/12:30am 17.6 16.6 13.3 76 2.5 ESE 11 15 6 8 1017.3 1016.1 0.0
25/12:00am 17.7 16.3 13.4 76 2.5 SE 13 19 7 10 1017.7 1016.4 0.0
 
Date/Time
EDT
Temp
°C
App
Temp
°C
Dew
Point
°C
Rel
Hum
%
Delta-T
°C
Wind Press
QNH
hPa
Press
MSL
hPa
Rain since
9am
mm
Dir  Spd
km/h
Gust
km/h
Spd
kts
Gust
kts
24/11:30pm 18.2 16.9 13.7 75 2.6 ESE 13 17 7 9 1017.8 1016.5 0.0
24/11:00pm 18.6 17.8 13.9 74 2.7 ESE 11 17 6 9 1017.7 1016.4 0.0
24/10:30pm 18.6 17.9 13.2 71 3.1 SE 9 13 5 7 1017.9 1016.6 0.0
24/10:00pm 19.4 18.2 12.7 65 3.8 ESE 11 19 6 10 1017.6 1016.3 0.0
24/09:30pm 19.8 18.5 12.6 63 4.1 ESE 11 17 6 9 1017.6 1016.3 0.0
24/09:00pm 20.3 18.7 12.8 62 4.3 ESE 13 19 7 10 1017.3 1016.1 0.0
24/08:30pm 20.9 19.3 12.8 60 4.7 E 13 17 7 9 1016.9 1015.7 0.0
24/08:00pm 21.2 19.7 13.1 60 4.7 ESE 13 20 7 11 1016.4 1015.1 0.0
24/07:30pm 21.7 20.3 13.3 59 4.9 ESE 13 19 7 10 1016.1 1014.8 0.0
24/07:00pm 22.7 21.3 13.5 56 5.4 ESE 13 22 7 12 1016.2 1014.9 0.0
24/06:30pm 23.4 21.4 13.8 54 5.7 ESE 17 24 9 13 1015.8 1014.5 0.0
24/06:00pm 23.7 21.0 13.6 53 6.0 E 20 30 11 16 1015.8 1014.5 0.0
24/05:30pm 25.0 21.7 13.9 50 6.6 ESE 24 33 13 18 1015.6 1014.3 0.0
24/05:00pm 25.7 22.9 14.2 49 6.9 ESE 22 28 12 15 1015.7 1014.4 0.0
24/04:30pm 25.4 23.4 13.9 49 6.9 ESE 17 24 9 13 1015.7 1014.4 0.0
24/04:00pm 25.6 23.6 13.8 48 7.1 E 17 28 9 15 1015.9 1014.6 0.0

Other Formats:

Comma delimited format used in spreadsheet applications
http://www.bom.gov.au/fwo/IDN60801/IDN60801.94712.axf

JavaScript Object Notation format (JSON) in row-major order
http://www.bom.gov.au/fwo/IDN60801/IDN60801.94712.json